Time,TemperatureF,DewpointF,PressureIn,WindDirection,WindDirectionDegrees,WindSpeedMPH,WindSpeedGustMPH,Humidity,HourlyPrecipIn,Conditions,Clouds,dailyrainin,SoftwareType,DateUTC
2013-04-05 00:02:00,48.3,26.9,30.01,NE,56,4.0,4.0,43,0.00,,,0.00,WeatherCatV1.15B25,2013-04-05 05:02:00,
2013-04-05 00:07:00,48.0,26.6,30.01,NE,56,0.0,0.0,43,0.00,,,0.00,WeatherCatV1.15B25,2013-04-05 05:07:00,
2013-04-05 00:12:00,47.7,26.9,30.01,NE,56,1.0,2.0,44,0.00,,,0.00,WeatherCatV1.15B25,2013-04-05 05:12:00,
2013-04-05 00:17:00,47.4,27.1,30.00,ENE,57,3.0,3.0,45,0.00,,,0.00,WeatherCatV1.15B25,2013-04-05 05:17:00,
2013-04-05 00:22:00,47.1,26.9,30.00,ENE,57,0.0,0.0,45,0.00,,,0.00,WeatherCatV1.15B25,2013-04-05 05:22:00,
2013-04-05 00:27:00,46.8,27.1,30.00,ENE,57,0.0,0.0,46,0.00,,,0.00,WeatherCatV1.15B25,2013-04-05 05:27:00,
2013-04-05 00:32:00,46.5,26.8,30.00,ENE,57,2.0,2.0,46,0.00,,,0.00,WeatherCatV1.15B25,2013-04-05 05:32:00,
2013-04-05 00:37:00,46.4,27.3,30.00,ENE,57,3.0,3.0,47,0.00,,,0.00,WeatherCatV1.15B25,2013-04-05 05:37:00,
2013-04-05 00:42:00,46.2,27.6,30.00,ENE,57,0.0,0.0,48,0.00,,,0.00,WeatherCatV1.15B25,2013-04-05 05:42:00,
2013-04-05 00:47:00,46.1,28.0,30.01,NE,46,5.0,6.0,49,0.00,,,0.00,WeatherCatV1.15B25,2013-04-05 05:47:00,
2013-04-05 00:52:00,46.1,28.0,30.01,NE,51,4.0,7.0,49,0.00,,,0.00,WeatherCatV1.15B25,2013-04-05 05:52:00,
2013-04-05 00:57:00,46.1,28.0,30.01,ENE,57,3.0,5.0,49,0.00,,,0.00,WeatherCatV1.15B25,2013-04-05 05:57:00,
2013-04-05 01:02:00,45.8,28.2,30.01,ENE,77,3.0,7.0,50,0.00,,,0.00,WeatherCatV1.15B25,2013-04-05 06:02:00,
2013-04-05 01:07:00,45.5,28.4,30.01,NE,53,2.0,3.0,51,0.00,,,0.00,WeatherCatV1.15B25,2013-04-05 06:07:00,
2013-04-05 01:12:00,45.4,28.8,30.01,NE,51,2.0,4.0,52,0.00,,,0.00,WeatherCatV1.15B25,2013-04-05 06:12:00,
2013-04-05 01:17:00,45.1,28.5,30.02,NE,39,1.0,5.0,52,0.00,,,0.00,WeatherCatV1.15B25,2013-04-05 06:17:00,
2013-04-05 01:22:00,44.9,28.8,30.02,NE,40,1.0,6.0,53,0.00,,,0.00,WeatherCatV1.15B25,2013-04-05 06:22:00,
2013-04-05 01:27:00,44.8,28.7,30.02,NE,41,2.0,6.0,53,0.00,,,0.00,WeatherCatV1.15B25,2013-04-05 06:27:00,
2013-04-05 01:32:00,44.5,28.9,30.02,NE,42,0.0,4.0,54,0.00,,,0.00,WeatherCatV1.15B25,2013-04-05 06:32:00,
2013-04-05 01:37:00,44.2,29.1,30.02,NE,49,2.0,7.0,55,0.00,,,0.00,WeatherCatV1.15B25,2013-04-05 06:37:00,
2013-04-05 01:42:00,44.1,29.0,30.02,ENE,65,3.0,5.0,55,0.00,,,0.00,WeatherCatV1.15B25,2013-04-05 06:42:00,
2013-04-05 01:47:00,43.8,28.7,30.03,NE,35,7.0,10.0,55,0.00,,,0.00,WeatherCatV1.15B25,2013-04-05 06:47:00,
2013-04-05 01:52:00,43.6,29.0,30.03,ENE,74,2.0,5.0,56,0.00,,,0.00,WeatherCatV1.15B25,2013-04-05 06:52:00,
2013-04-05 01:57:00,43.5,28.9,30.03,NE,55,4.0,7.0,56,0.00,,,0.00,WeatherCatV1.15B25,2013-04-05 06:57:00,
2013-04-05 02:02:00,43.2,29.0,30.03,ENE,64,2.0,4.0,57,0.00,,,0.00,WeatherCatV1.15B25,2013-04-05 07:02:00,
2013-04-05 02:07:00,43.1,28.9,30.03,ENE,63,2.0,5.0,57,0.00,,,0.00,WeatherCatV1.15B25,2013-04-05 07:07:00,
2013-04-05 02:12:00,42.9,29.2,30.03,ENE,59,4.0,7.0,58,0.00,,,0.00,WeatherCatV1.15B25,2013-04-05 07:12:00,
2013-04-05 02:17:00,42.8,29.1,30.03,ENE,57,2.0,5.0,58,0.00,,,0.00,WeatherCatV1.15B25,2013-04-05 07:17:00,
2013-04-05 02:22:00,42.6,29.3,30.03,ENE,61,4.0,5.0,59,0.00,,,0.00,WeatherCatV1.15B25,2013-04-05 07:22:00,
2013-04-05 02:27:00,42.3,29.0,30.03,NE,51,3.0,6.0,59,0.00,,,0.00,WeatherCatV1.15B25,2013-04-05 07:27:00,
2013-04-05 02:32:00,42.2,29.3,30.03,NE,55,4.0,6.0,60,0.00,,,0.00,WeatherCatV1.15B25,2013-04-05 07:32:00,
2013-04-05 02:37:00,42.1,29.2,30.03,NE,44,4.0,9.0,60,0.00,,,0.00,WeatherCatV1.15B25,2013-04-05 07:37:00,
2013-04-05 02:42:00,41.8,29.4,30.03,NE,54,2.0,9.0,61,0.00,,,0.00,WeatherCatV1.15B25,2013-04-05 07:42:00,
2013-04-05 02:47:00,41.6,29.6,30.03,ENE,57,3.0,3.0,62,0.00,,,0.00,WeatherCatV1.15B25,2013-04-05 07:47:00,
2013-04-05 02:52:00,41.3,29.3,30.03,ENE,57,1.0,3.0,62,0.00,,,0.00,WeatherCatV1.15B25,2013-04-05 07:52:00,
2013-04-05 02:57:00,41.2,29.6,30.03,ENE,67,3.0,4.0,63,0.00,,,0.00,WeatherCatV1.15B25,2013-04-05 07:57:00,
2013-04-05 03:02:00,41.1,29.9,30.03,ENE,67,4.0,4.0,64,0.00,,,0.00,WeatherCatV1.15B25,2013-04-05 08:02:00,
2013-04-05 03:07:00,40.9,29.7,30.03,ENE,67,0.0,3.0,64,0.00,,,0.00,WeatherCatV1.15B25,2013-04-05 08:07:00,
2013-04-05 03:12:00,40.6,29.8,30.03,ENE,67,0.0,4.0,65,0.00,,,0.00,WeatherCatV1.15B25,2013-04-05 08:12:00,
2013-04-05 03:17:00,40.5,29.7,30.03,ENE,67,2.0,3.0,65,0.00,,,0.00,WeatherCatV1.15B25,2013-04-05 08:17:00,
2013-04-05 03:22:00,40.3,29.5,30.03,ENE,65,1.0,3.0,65,0.00,,,0.00,WeatherCatV1.15B25,2013-04-05 08:22:00,
2013-04-05 03:27:00,40.2,29.8,30.03,ENE,65,2.0,4.0,66,0.00,,,0.00,WeatherCatV1.15B25,2013-04-05 08:27:00,
2013-04-05 03:32:00,40.1,29.7,30.03,ENE,65,0.0,2.0,66,0.00,,,0.00,WeatherCatV1.15B25,2013-04-05 08:32:00,
2013-04-05 03:37:00,39.8,29.8,30.03,ENE,65,0.0,3.0,67,0.00,,,0.00,WeatherCatV1.15B25,2013-04-05 08:37:00,
2013-04-05 03:42:00,39.6,29.6,30.03,ENE,65,2.0,2.0,67,0.00,,,0.00,WeatherCatV1.15B25,2013-04-05 08:42:00,
2013-04-05 03:47:00,39.5,29.5,30.04,ENE,65,0.0,4.0,67,0.00,,,0.00,WeatherCatV1.15B25,2013-04-05 08:47:00,
2013-04-05 03:52:00,39.3,29.6,30.04,NE,47,4.0,7.0,68,0.00,,,0.00,WeatherCatV1.15B25,2013-04-05 08:52:00,
2013-04-05 03:57:00,39.3,29.6,30.04,NE,49,0.0,1.0,68,0.00,,,0.00,WeatherCatV1.15B25,2013-04-05 08:57:00,
2013-04-05 04:02:00,39.2,29.5,30.04,ENE,57,4.0,7.0,68,0.00,,,0.00,WeatherCatV1.15B25,2013-04-05 09:02:00,
2013-04-05 04:07:00,39.2,29.9,30.04,ENE,60,6.0,6.0,69,0.00,,,0.00,WeatherCatV1.15B25,2013-04-05 09:07:00,
2013-04-05 04:12:00,38.9,29.6,30.04,ENE,59,4.0,6.0,69,0.00,,,0.00,WeatherCatV1.15B25,2013-04-05 09:12:00,
2013-04-05 04:17:00,38.8,29.9,30.04,ENE,65,7.0,7.0,70,0.00,,,0.00,WeatherCatV1.15B25,2013-04-05 09:17:00,
2013-04-05 04:22:00,38.5,29.6,30.04,NE,36,2.0,3.0,70,0.00,,,0.00,WeatherCatV1.15B25,2013-04-05 09:22:00,
2013-04-05 04:27:00,38.3,29.7,30.04,NE,39,0.0,2.0,71,0.00,,,0.00,WeatherCatV1.15B25,2013-04-05 09:27:00,
2013-04-05 04:32:00,38.2,29.6,30.04,NE,39,0.0,2.0,71,0.00,,,0.00,WeatherCatV1.15B25,2013-04-05 09:32:00,
2013-04-05 04:37:00,37.9,29.4,30.04,NE,39,1.0,2.0,71,0.00,,,0.00,WeatherCatV1.15B25,2013-04-05 09:37:00,
2013-04-05 04:42:00,37.8,29.6,30.04,NE,39,2.0,2.0,72,0.00,,,0.00,WeatherCatV1.15B25,2013-04-05 09:42:00,
2013-04-05 04:47:00,37.6,29.4,30.04,ENE,65,3.0,4.0,72,0.00,,,0.00,WeatherCatV1.15B25,2013-04-05 09:47:00,
2013-04-05 04:52:00,37.5,29.3,30.04,ENE,72,2.0,4.0,72,0.00,,,0.00,WeatherCatV1.15B25,2013-04-05 09:52:00,
2013-04-05 04:57:00,37.3,29.5,30.04,ENE,65,3.0,4.0,73,0.00,,,0.00,WeatherCatV1.15B25,2013-04-05 09:57:00,
2013-04-05 05:02:00,37.2,29.4,30.05,ENE,65,3.0,4.0,73,0.00,,,0.00,WeatherCatV1.15B25,2013-04-05 10:02:00,
2013-04-05 05:07:00,37.0,29.2,30.05,ENE,65,2.0,4.0,73,0.00,,,0.00,WeatherCatV1.15B25,2013-04-05 10:07:00,
2013-04-05 05:12:00,36.9,30.1,30.05,ENE,65,0.0,3.0,76,0.00,,,0.00,WeatherCatV1.15B25,2013-04-05 10:12:00,
2013-04-05 05:17:00,36.8,29.3,30.05,ENE,65,1.0,2.0,74,0.00,,,0.00,WeatherCatV1.15B25,2013-04-05 10:17:00,
2013-04-05 05:22:00,36.6,29.1,30.05,ENE,65,4.0,5.0,74,0.00,,,0.00,WeatherCatV1.15B25,2013-04-05 10:22:00,
2013-04-05 05:27:00,36.6,29.4,30.05,ENE,63,2.0,5.0,75,0.00,,,0.00,WeatherCatV1.15B25,2013-04-05 10:27:00,
2013-04-05 05:32:00,36.5,29.3,30.05,ENE,64,2.0,5.0,75,0.00,,,0.00,WeatherCatV1.15B25,2013-04-05 10:32:00,
2013-04-05 05:37:00,36.3,29.1,30.05,NE,47,6.0,6.0,75,0.00,,,0.00,WeatherCatV1.15B25,2013-04-05 10:37:00,
2013-04-05 05:42:00,36.2,29.1,30.05,NE,48,1.0,4.0,75,0.00,,,0.00,WeatherCatV1.15B25,2013-04-05 10:42:00,
2013-04-05 05:47:00,36.0,29.2,30.05,NE,47,3.0,3.0,76,0.00,,,0.00,WeatherCatV1.15B25,2013-04-05 10:47:00,
2013-04-05 05:52:00,35.9,29.1,30.05,NE,47,3.0,4.0,76,0.00,,,0.00,WeatherCatV1.15B25,2013-04-05 10:52:00,
2013-04-05 05:57:00,35.8,29.0,30.05,NE,49,2.0,3.0,76,0.00,,,0.00,WeatherCatV1.15B25,2013-04-05 10:57:00,
2013-04-05 06:02:00,35.6,28.8,30.06,NE,49,2.0,3.0,76,0.00,,,0.00,WeatherCatV1.15B25,2013-04-05 11:02:00,
2013-04-05 06:07:00,35.6,29.1,30.06,NE,40,0.0,6.0,77,0.00,,,0.00,WeatherCatV1.15B25,2013-04-05 11:07:00,
2013-04-05 06:12:00,35.5,29.0,30.06,NE,40,2.0,4.0,77,0.00,,,0.00,WeatherCatV1.15B25,2013-04-05 11:12:00,
2013-04-05 06:17:00,35.3,28.8,30.06,NE,40,1.0,1.0,77,0.00,,,0.00,WeatherCatV1.15B25,2013-04-05 11:17:00,
2013-04-05 06:22:00,35.3,28.8,30.06,NE,55,1.0,2.0,77,0.00,,,0.00,WeatherCatV1.15B25,2013-04-05 11:22:00,
2013-04-05 06:27:00,35.2,28.7,30.06,NE,55,1.0,2.0,77,0.00,,,0.00,WeatherCatV1.15B25,2013-04-05 11:27:00,
2013-04-05 06:32:00,35.0,28.5,30.06,NE,55,1.0,3.0,77,0.00,,,0.00,WeatherCatV1.15B25,2013-04-05 11:32:00,
2013-04-05 06:37:00,35.0,28.8,30.06,ENE,57,0.0,4.0,78,0.00,,,0.00,WeatherCatV1.15B25,2013-04-05 11:37:00,
2013-04-05 06:42:00,35.0,28.8,30.06,ENE,57,0.0,1.0,78,0.00,,,0.00,WeatherCatV1.15B25,2013-04-05 11:42:00,
2013-04-05 06:47:00,34.9,28.8,30.07,ENE,57,0.0,0.0,78,0.00,,,0.00,WeatherCatV1.15B25,2013-04-05 11:47:00,
2013-04-05 06:52:00,34.9,28.8,30.07,ENE,57,0.0,1.0,78,0.00,,,0.00,WeatherCatV1.15B25,2013-04-05 11:52:00,
2013-04-05 06:57:00,34.9,28.8,30.07,ENE,57,0.0,1.0,78,0.00,,,0.00,WeatherCatV1.15B25,2013-04-05 11:57:00,
2013-04-05 07:03:00,34.9,28.8,30.07,ENE,57,0.0,3.0,78,0.00,,,0.00,WeatherCatV1.15B25,2013-04-05 12:03:00,
2013-04-05 07:08:00,34.9,28.8,30.07,ENE,57,0.0,0.0,78,0.00,,,0.00,WeatherCatV1.15B25,2013-04-05 12:08:00,
2013-04-05 07:13:00,34.7,28.6,30.07,ENE,57,0.0,0.0,78,0.00,,,0.00,WeatherCatV1.15B25,2013-04-05 12:13:00,
2013-04-05 07:18:00,34.7,28.6,30.08,ENE,57,0.0,0.0,78,0.00,,,0.00,WeatherCatV1.15B25,2013-04-05 12:18:00,
2013-04-05 07:23:00,34.6,28.5,30.08,ENE,57,0.0,2.0,78,0.00,,,0.00,WeatherCatV1.15B25,2013-04-05 12:23:00,
2013-04-05 07:28:00,34.6,28.5,30.08,ENE,57,0.0,2.0,78,0.00,,,0.00,WeatherCatV1.15B25,2013-04-05 12:28:00,
2013-04-05 07:33:00,34.7,28.6,30.06,ENE,57,0.0,3.0,78,0.00,,,0.00,WeatherCatV1.15B25,2013-04-05 12:33:00,
2013-04-05 07:38:00,34.9,28.8,30.06,ENE,57,1.0,2.0,78,0.00,,,0.00,WeatherCatV1.15B25,2013-04-05 12:38:00,
2013-04-05 07:43:00,35.0,28.8,30.06,ENE,57,4.0,4.0,78,0.00,,,0.00,WeatherCatV1.15B25,2013-04-05 12:43:00,
2013-04-05 07:48:00,35.3,28.8,30.06,ENE,61,0.0,5.0,77,0.00,,,0.00,WeatherCatV1.15B25,2013-04-05 12:48:00,
2013-04-05 07:53:00,35.5,29.0,30.06,ENE,65,2.0,5.0,77,0.00,,,0.00,WeatherCatV1.15B25,2013-04-05 12:53:00,
2013-04-05 07:58:00,35.6,28.8,30.06,ENE,65,2.0,4.0,76,0.00,,,0.00,WeatherCatV1.15B25,2013-04-05 12:58:00,
2013-04-05 08:03:00,35.8,29.0,30.06,ENE,65,2.0,3.0,76,0.00,,,0.00,WeatherCatV1.15B25,2013-04-05 13:03:00,
2013-04-05 08:08:00,36.0,29.2,30.06,ENE,65,1.0,5.0,76,0.00,,,0.00,WeatherCatV1.15B25,2013-04-05 13:08:00,
2013-04-05 08:13:00,36.5,29.3,30.06,ENE,65,4.0,4.0,75,0.00,,,0.00,WeatherCatV1.15B25,2013-04-05 13:13:00,
2013-04-05 08:18:00,36.9,29.4,30.05,ENE,68,3.0,6.0,74,0.00,,,0.00,WeatherCatV1.15B25,2013-04-05 13:18:00,
2013-04-05 08:23:00,37.2,29.7,30.05,East,94,0.0,3.0,74,0.00,,,0.00,WeatherCatV1.15B25,2013-04-05 13:23:00,
2013-04-05 08:28:00,37.5,29.6,30.05,East,98,2.0,4.0,73,0.00,,,0.00,WeatherCatV1.15B25,2013-04-05 13:28:00,
2013-04-05 08:33:00,37.6,29.4,30.05,ESE,107,2.0,4.0,72,0.00,,,0.00,WeatherCatV1.15B25,2013-04-05 13:33:00,
2013-04-05 08:38:00,38.0,29.8,30.05,ESE,106,2.0,3.0,72,0.00,,,0.00,WeatherCatV1.15B25,2013-04-05 13:38:00,
2013-04-05 08:43:00,38.5,29.9,30.05,ESE,107,2.0,4.0,71,0.00,,,0.00,WeatherCatV1.15B25,2013-04-05 13:43:00,
2013-04-05 08:48:00,39.1,30.5,30.05,ESE,111,3.0,5.0,71,0.00,,,0.00,WeatherCatV1.15B25,2013-04-05 13:48:00,
2013-04-05 08:53:00,39.2,29.9,30.05,ESE,112,2.0,4.0,69,0.00,,,0.00,WeatherCatV1.15B25,2013-04-05 13:53:00,
2013-04-05 08:58:00,39.5,29.8,30.05,East,99,1.0,4.0,68,0.00,,,0.00,WeatherCatV1.15B25,2013-04-05 13:58:00,
2013-04-05 09:03:00,39.8,30.1,30.06,ESE,122,0.0,2.0,68,0.00,,,0.00,WeatherCatV1.15B25,2013-04-05 14:03:00,
2013-04-05 09:08:00,40.2,30.1,30.06,SE,126,3.0,3.0,67,0.00,,,0.00,WeatherCatV1.15B25,2013-04-05 14:08:00,
2013-04-05 09:13:00,40.3,30.2,30.06,SE,127,4.0,5.0,67,0.00,,,0.00,WeatherCatV1.15B25,2013-04-05 14:13:00,
2013-04-05 09:18:00,40.5,30.0,30.05,SE,136,4.0,5.0,66,0.00,,,0.00,WeatherCatV1.15B25,2013-04-05 14:18:00,
2013-04-05 09:23:00,40.8,30.0,30.05,ESE,122,3.0,7.0,65,0.00,,,0.00,WeatherCatV1.15B25,2013-04-05 14:23:00,
2013-04-05 09:28:00,41.5,30.6,30.05,SE,136,0.0,5.0,65,0.00,,,0.00,WeatherCatV1.15B25,2013-04-05 14:28:00,
2013-04-05 09:33:00,42.2,30.1,30.05,SE,135,2.0,4.0,62,0.00,,,0.00,WeatherCatV1.15B25,2013-04-05 14:33:00,
2013-04-05 09:38:00,42.6,30.5,30.05,SE,128,4.0,6.0,62,0.00,,,0.00,WeatherCatV1.15B25,2013-04-05 14:38:00,
2013-04-05 09:43:00,42.8,29.9,30.05,East,101,2.0,5.0,60,0.00,,,0.00,WeatherCatV1.15B25,2013-04-05 14:43:00,
2013-04-05 09:48:00,43.1,30.2,30.05,ESE,117,2.0,4.0,60,0.00,,,0.00,WeatherCatV1.15B25,2013-04-05 14:48:00,
2013-04-05 09:53:00,43.5,30.1,30.05,SE,134,2.0,7.0,59,0.00,,,0.00,WeatherCatV1.15B25,2013-04-05 14:53:00,
2013-04-05 09:58:00,43.9,30.5,30.05,SE,135,3.0,9.0,59,0.00,,,0.00,WeatherCatV1.15B25,2013-04-05 14:58:00,
2013-04-05 10:03:00,44.1,30.3,30.04,ESE,103,4.0,5.0,58,0.00,,,0.00,WeatherCatV1.15B25,2013-04-05 15:03:00,
2013-04-05 10:08:00,44.6,30.7,30.04,ESE,115,4.0,4.0,58,0.00,,,0.00,WeatherCatV1.15B25,2013-04-05 15:08:00,
2013-04-05 10:13:00,45.4,31.1,30.04,SSE,149,3.0,6.0,57,0.00,,,0.00,WeatherCatV1.15B25,2013-04-05 15:13:00,
2013-04-05 10:18:00,45.7,30.5,30.04,SE,138,5.0,6.0,55,0.00,,,0.00,WeatherCatV1.15B25,2013-04-05 15:18:00,
2013-04-05 10:23:00,46.1,30.8,30.04,SE,140,3.0,5.0,55,0.00,,,0.00,WeatherCatV1.15B25,2013-04-05 15:23:00,
2013-04-05 10:28:00,46.5,30.8,30.04,SE,138,3.0,6.0,54,0.00,,,0.00,WeatherCatV1.15B25,2013-04-05 15:28:00,
2013-04-05 10:33:00,46.7,30.5,30.02,SE,146,2.0,8.0,53,0.00,,,0.00,WeatherCatV1.15B25,2013-04-05 15:33:00,
2013-04-05 10:38:00,46.8,30.6,30.02,SSE,153,2.0,5.0,53,0.00,,,0.00,WeatherCatV1.15B25,2013-04-05 15:38:00,
2013-04-05 10:43:00,47.1,31.3,30.02,SE,140,6.0,9.0,54,0.00,,,0.00,WeatherCatV1.15B25,2013-04-05 15:43:00,
2013-04-05 10:48:00,47.7,31.9,30.02,SE,135,1.0,7.0,54,0.00,,,0.00,WeatherCatV1.15B25,2013-04-05 15:48:00,
2013-04-05 10:53:00,48.2,31.4,30.02,SE,140,1.0,6.0,52,0.00,,,0.00,WeatherCatV1.15B25,2013-04-05 15:53:00,
2013-04-05 10:58:00,48.5,31.7,30.02,SSE,154,3.0,10.0,52,0.00,,,0.00,WeatherCatV1.15B25,2013-04-05 15:58:00,
2013-04-05 11:03:00,49.2,31.4,30.01,ESE,113,5.0,5.0,50,0.00,,,0.00,WeatherCatV1.15B25,2013-04-05 16:03:00,
2013-04-05 11:08:00,49.6,32.2,30.01,South,171,3.0,9.0,51,0.00,,,0.00,WeatherCatV1.15B25,2013-04-05 16:08:00,
2013-04-05 11:13:00,50.4,32.0,30.01,SSE,164,3.0,5.0,49,0.00,,,0.00,WeatherCatV1.15B25,2013-04-05 16:13:00,
2013-04-05 11:18:00,50.8,31.8,30.00,SE,142,3.0,9.0,48,0.00,,,0.00,WeatherCatV1.15B25,2013-04-05 16:18:00,
2013-04-05 11:23:00,51.4,32.4,30.00,SE,128,4.0,9.0,48,0.00,,,0.00,WeatherCatV1.15B25,2013-04-05 16:23:00,
2013-04-05 11:28:00,51.6,31.5,30.00,SE,131,5.0,10.0,46,0.00,,,0.00,WeatherCatV1.15B25,2013-04-05 16:28:00,
2013-04-05 11:33:00,52.2,32.6,29.99,South,180,3.0,6.0,47,0.00,,,0.00,WeatherCatV1.15B25,2013-04-05 16:33:00,
2013-04-05 11:38:00,52.5,31.2,29.99,SE,124,2.0,6.0,44,0.00,,,0.00,WeatherCatV1.15B25,2013-04-05 16:38:00,
2013-04-05 11:43:00,52.8,32.1,29.99,South,169,12.0,12.0,45,0.00,,,0.00,WeatherCatV1.15B25,2013-04-05 16:43:00,
2013-04-05 11:48:00,53.5,32.1,29.97,SSE,165,2.0,6.0,44,0.00,,,0.00,WeatherCatV1.15B25,2013-04-05 16:48:00,
2013-04-05 11:53:00,53.9,31.9,29.97,SE,128,5.0,9.0,43,0.00,,,0.00,WeatherCatV1.15B25,2013-04-05 16:53:00,
2013-04-05 11:58:00,54.4,31.8,29.97,SE,131,7.0,11.0,42,0.00,,,0.00,WeatherCatV1.15B25,2013-04-05 16:58:00,
2013-04-05 12:03:00,55.0,31.7,29.96,South,170,5.0,10.0,41,0.00,,,0.00,WeatherCatV1.15B25,2013-04-05 17:03:00,
2013-04-05 12:08:00,55.4,31.5,29.96,SSE,160,5.0,13.0,40,0.00,,,0.00,WeatherCatV1.15B25,2013-04-05 17:08:00,
2013-04-05 12:13:00,55.9,31.9,29.96,South,170,2.0,6.0,40,0.00,,,0.00,WeatherCatV1.15B25,2013-04-05 17:13:00,
2013-04-05 12:18:00,56.5,31.8,29.95,SE,132,2.0,12.0,39,0.00,,,0.00,WeatherCatV1.15B25,2013-04-05 17:18:00,
2013-04-05 12:23:00,57.2,33.1,29.95,SSE,157,5.0,10.0,40,0.00,,,0.00,WeatherCatV1.15B25,2013-04-05 17:23:00,
2013-04-05 12:28:00,57.6,32.2,29.95,SSE,161,6.0,10.0,38,0.00,,,0.00,WeatherCatV1.15B25,2013-04-05 17:28:00,
2013-04-05 12:33:00,57.6,31.5,29.94,South,175,9.0,10.0,37,0.00,,,0.00,WeatherCatV1.15B25,2013-04-05 17:33:00,
2013-04-05 12:38:00,57.8,32.4,29.94,SE,130,4.0,8.0,38,0.00,,,0.00,WeatherCatV1.15B25,2013-04-05 17:38:00,
2013-04-05 12:43:00,58.0,32.5,29.94,ESE,113,5.0,6.0,38,0.00,,,0.00,WeatherCatV1.15B25,2013-04-05 17:43:00,
2013-04-05 12:48:00,58.4,32.9,29.93,SSE,161,9.0,11.0,38,0.00,,,0.00,WeatherCatV1.15B25,2013-04-05 17:48:00,
2013-04-05 12:53:00,58.9,32.7,29.93,South,173,9.0,11.0,37,0.00,,,0.00,WeatherCatV1.15B25,2013-04-05 17:53:00,
2013-04-05 12:58:00,59.0,32.1,29.93,South,181,6.0,9.0,36,0.00,,,0.00,WeatherCatV1.15B25,2013-04-05 17:58:00,
2013-04-05 13:03:00,58.9,32.7,29.92,SE,126,5.0,7.0,37,0.00,,,0.00,WeatherCatV1.15B25,2013-04-05 18:03:00,
2013-04-05 13:08:00,58.9,32.7,29.92,SE,136,2.0,7.0,37,0.00,,,0.00,WeatherCatV1.15B25,2013-04-05 18:08:00,
2013-04-05 13:13:00,59.2,33.6,29.92,SE,130,2.0,4.0,38,0.00,,,0.00,WeatherCatV1.15B25,2013-04-05 18:13:00,
2013-04-05 13:18:00,59.6,33.3,29.91,SSE,157,3.0,9.0,37,0.00,,,0.00,WeatherCatV1.15B25,2013-04-05 18:18:00,
2013-04-05 13:23:00,60.4,34.7,29.91,SE,145,5.0,9.0,38,0.00,,,0.00,WeatherCatV1.15B25,2013-04-05 18:23:00,
2013-04-05 13:28:00,60.9,33.8,29.91,SE,133,5.0,11.0,36,0.00,,,0.00,WeatherCatV1.15B25,2013-04-05 18:28:00,
2013-04-05 13:33:00,61.5,34.3,29.89,SE,145,3.0,10.0,36,0.00,,,0.00,WeatherCatV1.15B25,2013-04-05 18:33:00,
2013-04-05 13:39:00,61.8,33.9,29.89,South,179,6.0,12.0,35,0.00,,,0.00,WeatherCatV1.15B25,2013-04-05 18:39:00,
2013-04-05 13:44:00,62.3,34.3,29.88,SE,126,5.0,11.0,35,0.00,,,0.00,WeatherCatV1.15B25,2013-04-05 18:44:00,
2013-04-05 13:49:00,62.9,33.4,29.88,South,181,11.0,13.0,33,0.00,,,0.00,WeatherCatV1.15B25,2013-04-05 18:49:00,
2013-04-05 13:54:00,63.4,34.5,29.88,South,170,4.0,13.0,34,0.00,,,0.00,WeatherCatV1.15B25,2013-04-05 18:54:00,
2013-04-05 13:59:00,63.5,33.1,29.86,SSE,155,2.0,18.0,32,0.00,,,0.00,WeatherCatV1.15B25,2013-04-05 18:59:00,
2013-04-05 14:04:00,63.7,33.3,29.86,SE,136,4.0,9.0,32,0.00,,,0.00,WeatherCatV1.15B25,2013-04-05 19:04:00,
2013-04-05 14:09:00,63.7,33.3,29.86,South,189,5.0,16.0,32,0.00,,,0.00,WeatherCatV1.15B25,2013-04-05 19:09:00,
2013-04-05 14:14:00,63.9,33.5,29.86,South,169,2.0,7.0,32,0.00,,,0.00,WeatherCatV1.15B25,2013-04-05 19:14:00,
2013-04-05 14:19:00,64.0,33.5,29.86,SE,129,4.0,11.0,32,0.00,,,0.00,WeatherCatV1.15B25,2013-04-05 19:19:00,
2013-04-05 14:24:00,64.5,34.8,29.86,South,173,9.0,14.0,33,0.00,,,0.00,WeatherCatV1.15B25,2013-04-05 19:24:00,
2013-04-05 14:29:00,65.2,34.6,29.84,SE,146,6.0,15.0,32,0.00,,,0.00,WeatherCatV1.15B25,2013-04-05 19:29:00,
2013-04-05 14:34:00,65.5,34.1,29.84,South,183,1.0,11.0,31,0.00,,,0.00,WeatherCatV1.15B25,2013-04-05 19:34:00,
2013-04-05 14:39:00,65.8,34.3,29.84,South,171,5.0,11.0,31,0.00,,,0.00,WeatherCatV1.15B25,2013-04-05 19:39:00,
2013-04-05 14:44:00,66.1,34.6,29.83,SSE,150,3.0,9.0,31,0.00,,,0.00,WeatherCatV1.15B25,2013-04-05 19:44:00,
2013-04-05 14:49:00,66.3,34.8,29.83,SSE,152,6.0,6.0,31,0.00,,,0.00,WeatherCatV1.15B25,2013-04-05 19:49:00,
2013-04-05 14:54:00,65.6,33.3,29.83,SSW,196,18.0,18.0,30,0.00,,,0.00,WeatherCatV1.15B25,2013-04-05 19:54:00,
2013-04-05 14:59:00,65.0,34.4,29.81,SSE,153,7.0,16.0,32,0.00,,,0.00,WeatherCatV1.15B25,2013-04-05 19:59:00,
2013-04-05 15:04:00,64.7,34.2,29.81,SSW,208,13.0,17.0,32,0.00,,,0.00,WeatherCatV1.15B25,2013-04-05 20:04:00,
2013-04-05 15:09:00,64.5,34.0,29.81,SSE,158,4.0,12.0,32,0.00,,,0.00,WeatherCatV1.15B25,2013-04-05 20:09:00,
2013-04-05 15:14:00,64.7,34.9,29.81,SSW,194,1.0,12.0,33,0.00,,,0.00,WeatherCatV1.15B25,2013-04-05 20:14:00,
2013-04-05 15:19:00,65.0,35.9,29.81,SE,130,9.0,12.0,34,0.00,,,0.00,WeatherCatV1.15B25,2013-04-05 20:19:00,
2013-04-05 15:24:00,65.3,34.7,29.81,South,190,14.0,17.0,32,0.00,,,0.00,WeatherCatV1.15B25,2013-04-05 20:24:00,
2013-04-05 15:29:00,65.6,34.9,29.79,South,181,6.0,10.0,32,0.00,,,0.00,WeatherCatV1.15B25,2013-04-05 20:29:00,
2013-04-05 15:34:00,65.8,35.1,29.79,SSE,167,3.0,16.0,32,0.00,,,0.00,WeatherCatV1.15B25,2013-04-05 20:34:00,
2013-04-05 15:39:00,66.1,35.4,29.79,South,180,7.0,14.0,32,0.00,,,0.00,WeatherCatV1.15B25,2013-04-05 20:39:00,
2013-04-05 15:44:00,66.1,34.6,29.78,South,188,13.0,20.0,31,0.00,,,0.00,WeatherCatV1.15B25,2013-04-05 20:44:00,
2013-04-05 15:49:00,66.1,35.4,29.78,South,182,5.0,11.0,32,0.00,,,0.00,WeatherCatV1.15B25,2013-04-05 20:49:00,
2013-04-05 15:54:00,66.1,34.6,29.78,SE,140,5.0,10.0,31,0.00,,,0.00,WeatherCatV1.15B25,2013-04-05 20:54:00,
2013-04-05 15:59:00,66.3,35.6,29.76,South,180,3.0,14.0,32,0.00,,,0.00,WeatherCatV1.15B25,2013-04-05 20:59:00,
2013-04-05 16:04:00,66.6,35.0,29.76,SSE,165,7.0,13.0,31,0.00,,,0.00,WeatherCatV1.15B25,2013-04-05 21:04:00,
2013-04-05 16:09:00,66.9,34.5,29.76,SSE,165,9.0,9.0,30,0.00,,,0.00,WeatherCatV1.15B25,2013-04-05 21:09:00,
2013-04-05 16:14:00,67.3,35.6,29.75,SE,138,4.0,4.0,31,0.00,,,0.00,WeatherCatV1.15B25,2013-04-05 21:14:00,
2013-04-05 16:19:00,67.3,34.8,29.75,South,180,3.0,12.0,30,0.00,,,0.00,WeatherCatV1.15B25,2013-04-05 21:19:00,
2013-04-05 16:24:00,67.1,34.6,29.75,South,177,1.0,10.0,30,0.00,,,0.00,WeatherCatV1.15B25,2013-04-05 21:24:00,
2013-04-05 16:29:00,67.1,35.4,29.73,South,184,6.0,12.0,31,0.00,,,0.00,WeatherCatV1.15B25,2013-04-05 21:29:00,
2013-04-05 16:34:00,67.1,35.4,29.73,South,182,4.0,10.0,31,0.00,,,0.00,WeatherCatV1.15B25,2013-04-05 21:34:00,
2013-04-05 16:39:00,67.3,34.8,29.73,SE,133,4.0,14.0,30,0.00,,,0.00,WeatherCatV1.15B25,2013-04-05 21:39:00,
2013-04-05 16:44:00,67.3,34.8,29.72,SSE,153,3.0,11.0,30,0.00,,,0.00,WeatherCatV1.15B25,2013-04-05 21:44:00,
2013-04-05 16:49:00,67.4,35.7,29.72,South,173,1.0,5.0,31,0.00,,,0.00,WeatherCatV1.15B25,2013-04-05 21:49:00,
2013-04-05 16:54:00,67.6,35.1,29.72,SE,133,3.0,13.0,30,0.00,,,0.00,WeatherCatV1.15B25,2013-04-05 21:54:00,
2013-04-05 16:59:00,67.9,34.5,29.71,SSE,163,14.0,14.0,29,0.00,,,0.00,WeatherCatV1.15B25,2013-04-05 21:59:00,
2013-04-05 17:04:00,68.1,33.8,29.71,South,169,4.0,10.0,28,0.00,,,0.00,WeatherCatV1.15B25,2013-04-05 22:04:00,
2013-04-05 17:09:00,68.1,33.8,29.71,South,170,10.0,17.0,28,0.00,,,0.00,WeatherCatV1.15B25,2013-04-05 22:09:00,
2013-04-05 17:14:00,68.1,34.6,29.70,SSE,167,6.0,6.0,29,0.00,,,0.00,WeatherCatV1.15B25,2013-04-05 22:14:00,
2013-04-05 17:19:00,68.3,33.9,29.70,SE,126,3.0,25.0,28,0.00,,,0.00,WeatherCatV1.15B25,2013-04-05 22:19:00,
2013-04-05 17:24:00,68.1,33.8,29.70,SSE,161,5.0,14.0,28,0.00,,,0.00,WeatherCatV1.15B25,2013-04-05 22:24:00,
2013-04-05 17:29:00,67.9,34.5,29.70,SSE,158,0.0,5.0,29,0.00,,,0.00,WeatherCatV1.15B25,2013-04-05 22:29:00,
2013-04-05 17:34:00,67.9,35.3,29.70,SSE,165,6.0,10.0,30,0.00,,,0.00,WeatherCatV1.15B25,2013-04-05 22:34:00,
2013-04-05 17:39:00,67.9,34.5,29.70,SSE,156,8.0,12.0,29,0.00,,,0.00,WeatherCatV1.15B25,2013-04-05 22:39:00,
2013-04-05 17:44:00,67.9,34.5,29.70,SSE,155,0.0,12.0,29,0.00,,,0.00,WeatherCatV1.15B25,2013-04-05 22:44:00,
2013-04-05 17:49:00,67.8,34.4,29.70,South,176,2.0,13.0,29,0.00,,,0.00,WeatherCatV1.15B25,2013-04-05 22:49:00,
2013-04-05 17:54:00,67.8,35.2,29.70,SSE,165,4.0,6.0,30,0.00,,,0.00,WeatherCatV1.15B25,2013-04-05 22:54:00,
2013-04-05 17:59:00,67.8,34.4,29.68,South,169,4.0,12.0,29,0.00,,,0.00,WeatherCatV1.15B25,2013-04-05 22:59:00,
2013-04-05 18:05:00,67.8,34.4,29.68,SSE,150,3.0,13.0,29,0.00,,,0.00,WeatherCatV1.15B25,2013-04-05 23:05:00,
2013-04-05 18:09:00,67.6,34.2,29.68,South,173,1.0,7.0,29,0.00,,,0.00,WeatherCatV1.15B25,2013-04-05 23:09:00,
2013-04-05 18:15:00,67.6,34.2,29.69,SE,137,2.0,6.0,29,0.00,,,0.00,WeatherCatV1.15B25,2013-04-05 23:15:00,
2013-04-05 18:20:00,67.6,34.2,29.69,SSE,155,5.0,11.0,29,0.00,,,0.00,WeatherCatV1.15B25,2013-04-05 23:20:00,
2013-04-05 18:25:00,67.4,34.0,29.69,South,175,7.0,13.0,29,0.00,,,0.00,WeatherCatV1.15B25,2013-04-05 23:25:00,
2013-04-05 18:30:00,67.4,33.2,29.68,South,172,9.0,9.0,28,0.00,,,0.00,WeatherCatV1.15B25,2013-04-05 23:30:00,
2013-04-05 18:35:00,67.4,33.2,29.68,South,171,13.0,14.0,28,0.00,,,0.00,WeatherCatV1.15B25,2013-04-05 23:35:00,
2013-04-05 18:40:00,67.6,32.4,29.68,South,171,1.0,15.0,27,0.00,,,0.00,WeatherCatV1.15B25,2013-04-05 23:40:00,
2013-04-05 18:45:00,67.8,32.6,29.68,South,169,12.0,12.0,27,0.00,,,0.00,WeatherCatV1.15B25,2013-04-05 23:45:00,
2013-04-05 18:50:00,67.8,33.5,29.68,South,177,1.0,7.0,28,0.00,,,0.00,WeatherCatV1.15B25,2013-04-05 23:50:00,
2013-04-05 18:55:00,67.8,33.5,29.68,South,178,3.0,7.0,28,0.00,,,0.00,WeatherCatV1.15B25,2013-04-05 23:55:00,
2013-04-05 19:00:00,67.6,33.3,29.67,SSE,161,5.0,16.0,28,0.00,,,0.00,WeatherCatV1.15B25,2013-04-06 00:00:00,
2013-04-05 19:05:00,67.6,33.3,29.67,South,181,9.0,11.0,28,0.00,,,0.00,WeatherCatV1.15B25,2013-04-06 00:05:00,
2013-04-05 19:10:00,67.4,33.2,29.67,SSE,155,9.0,15.0,28,0.00,,,0.00,WeatherCatV1.15B25,2013-04-06 00:10:00,
2013-04-05 19:15:00,67.3,32.2,29.67,South,186,3.0,13.0,27,0.00,,,0.00,WeatherCatV1.15B25,2013-04-06 00:15:00,
2013-04-05 19:20:00,67.1,32.9,29.67,SE,141,6.0,11.0,28,0.00,,,0.00,WeatherCatV1.15B25,2013-04-06 00:20:00,
2013-04-05 19:25:00,66.9,32.7,29.67,SSE,157,5.0,16.0,28,0.00,,,0.00,WeatherCatV1.15B25,2013-04-06 00:25:00,
2013-04-05 19:30:00,66.8,32.6,29.66,South,174,5.0,13.0,28,0.00,,,0.00,WeatherCatV1.15B25,2013-04-06 00:30:00,
2013-04-05 19:35:00,66.4,32.3,29.66,SSE,151,3.0,7.0,28,0.00,,,0.00,WeatherCatV1.15B25,2013-04-06 00:35:00,
2013-04-05 19:40:00,66.3,32.2,29.66,SSE,157,4.0,12.0,28,0.00,,,0.00,WeatherCatV1.15B25,2013-04-06 00:40:00,
2013-04-05 19:45:00,66.0,32.0,29.66,SSE,158,5.0,12.0,28,0.00,,,0.00,WeatherCatV1.15B25,2013-04-06 00:45:00,
2013-04-05 19:50:00,65.8,32.7,29.66,South,177,6.0,10.0,29,0.00,,,0.00,WeatherCatV1.15B25,2013-04-06 00:50:00,
2013-04-05 19:55:00,65.6,32.5,29.66,SSE,163,4.0,14.0,29,0.00,,,0.00,WeatherCatV1.15B25,2013-04-06 00:55:00,
2013-04-05 20:00:00,65.3,32.2,29.65,SSE,161,5.0,9.0,29,0.00,,,0.00,WeatherCatV1.15B25,2013-04-06 01:00:00,
2013-04-05 20:05:00,65.2,32.1,29.65,South,176,4.0,19.0,29,0.00,,,0.00,WeatherCatV1.15B25,2013-04-06 01:05:00,
2013-04-05 20:10:00,65.0,32.0,29.65,South,186,1.0,11.0,29,0.00,,,0.00,WeatherCatV1.15B25,2013-04-06 01:10:00,
2013-04-05 20:15:00,64.7,32.5,29.65,South,174,4.0,13.0,30,0.00,,,0.00,WeatherCatV1.15B25,2013-04-06 01:15:00,
2013-04-05 20:20:00,64.5,32.4,29.65,SE,140,6.0,14.0,30,0.00,,,0.00,WeatherCatV1.15B25,2013-04-06 01:20:00,
2013-04-05 20:25:00,64.3,32.2,29.65,SSE,154,5.0,12.0,30,0.00,,,0.00,WeatherCatV1.15B25,2013-04-06 01:25:00,
2013-04-05 20:30:00,64.2,32.1,29.64,SSE,165,5.0,11.0,30,0.00,,,0.00,WeatherCatV1.15B25,2013-04-06 01:30:00,
2013-04-05 20:35:00,64.0,31.9,29.64,South,180,5.0,17.0,30,0.00,,,0.00,WeatherCatV1.15B25,2013-04-06 01:35:00,
2013-04-05 20:40:00,63.9,31.9,29.64,South,175,4.0,9.0,30,0.00,,,0.00,WeatherCatV1.15B25,2013-04-06 01:40:00,
2013-04-05 20:45:00,63.7,32.5,29.64,SSE,155,6.0,16.0,31,0.00,,,0.00,WeatherCatV1.15B25,2013-04-06 01:45:00,
2013-04-05 20:50:00,63.5,32.3,29.64,SSE,148,7.0,11.0,31,0.00,,,0.00,WeatherCatV1.15B25,2013-04-06 01:50:00,
2013-04-05 20:55:00,63.4,32.2,29.64,South,178,0.0,6.0,31,0.00,,,0.00,WeatherCatV1.15B25,2013-04-06 01:55:00,
2013-04-05 21:00:00,63.2,32.1,29.64,SSW,192,3.0,14.0,31,0.00,,,0.00,WeatherCatV1.15B25,2013-04-06 02:00:00,
2013-04-05 21:05:00,63.1,32.0,29.64,South,173,2.0,12.0,31,0.00,,,0.00,WeatherCatV1.15B25,2013-04-06 02:05:00,
2013-04-05 21:10:00,62.9,32.6,29.64,South,178,6.0,11.0,32,0.00,,,0.00,WeatherCatV1.15B25,2013-04-06 02:10:00,
2013-04-05 21:15:00,62.7,32.4,29.64,SSE,148,10.0,17.0,32,0.00,,,0.00,WeatherCatV1.15B25,2013-04-06 02:15:00,
2013-04-05 21:20:00,62.7,32.4,29.64,SSW,201,4.0,13.0,32,0.00,,,0.00,WeatherCatV1.15B25,2013-04-06 02:20:00,
2013-04-05 21:25:00,62.6,32.3,29.64,South,176,2.0,12.0,32,0.00,,,0.00,WeatherCatV1.15B25,2013-04-06 02:25:00,
2013-04-05 21:30:00,62.4,32.2,29.64,SSE,165,4.0,6.0,32,0.00,,,0.00,WeatherCatV1.15B25,2013-04-06 02:30:00,
2013-04-05 21:35:00,62.3,32.1,29.64,SSE,165,1.0,7.0,32,0.00,,,0.00,WeatherCatV1.15B25,2013-04-06 02:35:00,
2013-04-05 21:40:00,62.0,32.6,29.64,South,169,2.0,6.0,33,0.00,,,0.00,WeatherCatV1.15B25,2013-04-06 02:40:00,
2013-04-05 21:45:00,61.6,33.0,29.63,South,191,2.0,7.0,34,0.00,,,0.00,WeatherCatV1.15B25,2013-04-06 02:45:00,
2013-04-05 21:50:00,61.6,33.7,29.63,SSE,150,4.0,7.0,35,0.00,,,0.00,WeatherCatV1.15B25,2013-04-06 02:50:00,
2013-04-05 21:55:00,61.5,33.6,29.63,South,172,4.0,14.0,35,0.00,,,0.00,WeatherCatV1.15B25,2013-04-06 02:55:00,
2013-04-05 22:00:00,61.3,34.1,29.63,South,172,2.0,5.0,36,0.00,,,0.00,WeatherCatV1.15B25,2013-04-06 03:00:00,
2013-04-05 22:05:00,61.2,34.7,29.63,SSE,148,3.0,14.0,37,0.00,,,0.00,WeatherCatV1.15B25,2013-04-06 03:05:00,
2013-04-05 22:10:00,61.0,34.5,29.63,SSE,156,7.0,13.0,37,0.00,,,0.00,WeatherCatV1.15B25,2013-04-06 03:10:00,
2013-04-05 22:15:00,61.0,35.2,29.61,South,169,3.0,9.0,38,0.00,,,0.00,WeatherCatV1.15B25,2013-04-06 03:15:00,
2013-04-05 22:20:00,60.9,35.1,29.61,SSE,158,5.0,13.0,38,0.00,,,0.00,WeatherCatV1.15B25,2013-04-06 03:20:00,
2013-04-05 22:25:00,60.9,35.8,29.61,SSE,165,5.0,13.0,39,0.00,,,0.00,WeatherCatV1.15B25,2013-04-06 03:25:00,
2013-04-05 22:30:00,60.7,35.6,29.61,SSE,165,8.0,13.0,39,0.00,,,0.00,WeatherCatV1.15B25,2013-04-06 03:30:00,
2013-04-05 22:35:00,60.5,35.4,29.61,SSW,193,9.0,15.0,39,0.00,,,0.00,WeatherCatV1.15B25,2013-04-06 03:35:00,
2013-04-05 22:40:00,60.5,36.1,29.61,South,182,3.0,14.0,40,0.00,,,0.00,WeatherCatV1.15B25,2013-04-06 03:40:00,
2013-04-05 22:45:00,60.5,35.4,29.60,SSW,198,16.0,16.0,39,0.00,,,0.00,WeatherCatV1.15B25,2013-04-06 03:45:00,
2013-04-05 22:50:00,60.5,35.4,29.60,SSE,165,5.0,13.0,39,0.00,,,0.00,WeatherCatV1.15B25,2013-04-06 03:50:00,
2013-04-05 22:55:00,60.5,35.4,29.60,SSE,153,2.0,10.0,39,0.00,,,0.00,WeatherCatV1.15B25,2013-04-06 03:55:00,
2013-04-05 23:00:00,60.4,35.3,29.61,South,180,6.0,14.0,39,0.00,,,0.00,WeatherCatV1.15B25,2013-04-06 04:00:00,
2013-04-05 23:04:00,60.4,35.3,29.61,SSE,159,6.0,20.0,39,0.00,,,0.00,WeatherCatV1.15B25,2013-04-06 04:04:00,
2013-04-05 23:09:00,60.2,35.2,29.61,SSE,162,4.0,13.0,39,0.00,,,0.00,WeatherCatV1.15B25,2013-04-06 04:09:00,
2013-04-05 23:14:00,60.1,35.7,29.61,SE,140,7.0,13.0,40,0.00,,,0.00,WeatherCatV1.15B25,2013-04-06 04:14:00,
2013-04-05 23:19:00,60.1,35.7,29.61,South,175,6.0,14.0,40,0.00,,,0.00,WeatherCatV1.15B25,2013-04-06 04:19:00,
2013-04-05 23:21:00,59.9,35.5,29.61,SSE,167,4.0,10.0,40,0.00,,,0.00,WeatherCatV1.15B25,2013-04-06 04:21:00,
2013-04-05 23:26:00,59.9,36.1,29.61,South,179,7.0,15.0,41,0.00,,,0.00,WeatherCatV1.15B25,2013-04-06 04:26:00,
2013-04-05 23:31:00,59.8,36.1,29.59,SSW,196,4.0,23.0,41,0.00,,,0.00,WeatherCatV1.15B25,2013-04-06 04:31:00,
2013-04-05 23:36:00,59.8,36.1,29.59,SSW,199,16.0,16.0,41,0.00,,,0.00,WeatherCatV1.15B25,2013-04-06 04:36:00,
2013-04-05 23:41:00,59.8,36.1,29.59,SSE,152,6.0,13.0,41,0.00,,,0.00,WeatherCatV1.15B25,2013-04-06 04:41:00,
2013-04-05 23:46:00,59.6,35.9,29.59,SSW,194,11.0,16.0,41,0.00,,,0.00,WeatherCatV1.15B25,2013-04-06 04:46:00,
2013-04-05 23:51:00,59.6,36.5,29.59,South,169,13.0,14.0,42,0.00,,,0.00,WeatherCatV1.15B25,2013-04-06 04:51:00,
2013-04-05 23:56:00,59.5,36.4,29.59,South,173,5.0,16.0,42,0.00,,,0.00,WeatherCatV1.15B25,2013-04-06 04:56:00,